Salado, Texas
Current Conditions -  °F | °C
As of 11:55 PM on Monday 26 Jan 2015 (Local Time) from KILE Reporting Station
Clear Clear  
Wind Chill: 55°   Ceiling: Unl
Heat Index: 55°   Visibility: 10mi
Dew Point: 36°   Wind: 5mph
Humidity: 47%   Direction: 240°WSW
Pressure: 30.13"   Gusts: NA
Location:  30.95°N, 97.54°W
Report Text: KILE 270555Z AUTO 24004KT 10SM CLR 13/02 A3013 RMK AO1 10190 20110 402300060 52003
Loading
Personal Weather Stations






























Interactive Weather Map New forecast layout! Learn more

10-Day Weather Forecast

Advertisements
Track Severe Weather on mobile